CEB455 RPVR-RPVM
Flight info
| Callsign | CEB455 |
|---|---|
| Flight time | 0h 37m |
| Altitude | 15000 |
| Route | ATRIA3A ATRIA DCT PARAO PARAO1 |
| Aircraft | A320/M-SDE3FGHIRWY/LB1 |
Departure
| Time | 2026-04-23 13:34 |
|---|---|
| Airport | Roxas Airport (RPVR) |
Arrival
| Time | 2026-04-23 14:12 |
|---|---|
| Airport | Mactan Cebu International Airport (RPVM) |
| Time | Latitude | Longitude | Altitude | Speed | Heading |
|---|---|---|---|---|---|
| 2026-04-23 13:14 | 11.60051 | 122.74947 | 17 ft | 0 kts | 278° |
| 2026-04-23 13:22 | 11.60065 | 122.74935 | 16 ft | 3 kts | 335° |
| 2026-04-23 13:23 | 11.60080 | 122.74931 | 18 ft | 1 kts | 345° |
| 2026-04-23 13:23 | 11.60082 | 122.74931 | 17 ft | 0 kts | 345° |
| 2026-04-23 13:26 | 11.60092 | 122.74928 | 14 ft | 4 kts | 345° |
| 2026-04-23 13:26 | 11.60113 | 122.74922 | 17 ft | 2 kts | 347° |
| 2026-04-23 13:26 | 11.60127 | 122.74921 | 17 ft | 4 kts | 357° |
| 2026-04-23 13:27 | 11.60155 | 122.74923 | 17 ft | 1 kts | 8° |
| 2026-04-23 13:30 | 11.60158 | 122.74924 | 17 ft | 4 kts | 8° |
| 2026-04-23 13:30 | 11.60222 | 122.74946 | 17 ft | 11 kts | 59° |
| 2026-04-23 13:30 | 11.60159 | 122.75020 | 17 ft | 21 kts | 144° |
| 2026-04-23 13:30 | 11.60025 | 122.75115 | 20 ft | 23 kts | 145° |
| 2026-04-23 13:31 | 11.59888 | 122.75212 | 20 ft | 25 kts | 145° |
| 2026-04-23 13:31 | 11.59764 | 122.75301 | 22 ft | 25 kts | 145° |
| 2026-04-23 13:31 | 11.59617 | 122.75407 | 21 ft | 27 kts | 145° |
| 2026-04-23 13:31 | 11.59457 | 122.75520 | 20 ft | 29 kts | 145° |
| 2026-04-23 13:32 | 11.59316 | 122.75620 | 17 ft | 30 kts | 145° |
| 2026-04-23 13:32 | 11.59198 | 122.75700 | 18 ft | 12 kts | 156° |
| 2026-04-23 13:32 | 11.59138 | 122.75729 | 19 ft | 6 kts | 135° |
| 2026-04-23 13:32 | 11.59148 | 122.75757 | 18 ft | 4 kts | 27° |
| 2026-04-23 13:33 | 11.59169 | 122.75747 | 18 ft | 3 kts | 305° |
| 2026-04-23 13:33 | 11.59183 | 122.75719 | 18 ft | 6 kts | 309° |
| 2026-04-23 13:33 | 11.59191 | 122.75711 | 18 ft | 0 kts | 322° |
| 2026-04-23 13:33 | 11.59373 | 122.75581 | 18 ft | 77 kts | 325° |
| 2026-04-23 13:34 | 11.60046 | 122.75103 | 24 ft | 155 kts | 325° |
| 2026-04-23 13:34 | 11.60685 | 122.74641 | 352 ft | 168 kts | 325° |
| 2026-04-23 13:34 | 11.61919 | 122.74085 | 1425 ft | 164 kts | 6° |
| 2026-04-23 13:34 | 11.62908 | 122.74495 | 2187 ft | 153 kts | 44° |
| 2026-04-23 13:35 | 11.63471 | 122.75323 | 2337 ft | 176 kts | 74° |
| 2026-04-23 13:35 | 11.63399 | 122.76612 | 2635 ft | 196 kts | 115° |
| 2026-04-23 13:35 | 11.62813 | 122.77373 | 2871 ft | 212 kts | 140° |
| 2026-04-23 13:35 | 11.61338 | 122.77882 | 3175 ft | 244 kts | 180° |
| 2026-04-23 13:37 | 11.50851 | 122.75349 | 8127 ft | 286 kts | 194° |
| 2026-04-23 13:37 | 11.49138 | 122.75102 | 8825 ft | 290 kts | 174° |
| 2026-04-23 13:37 | 11.47267 | 122.75841 | 9578 ft | 295 kts | 141° |
| 2026-04-23 13:38 | 11.46028 | 122.77501 | 10276 ft | 301 kts | 112° |
| 2026-04-23 13:38 | 11.45434 | 122.79325 | 10541 ft | 321 kts | 107° |
| 2026-04-23 13:38 | 11.44741 | 122.81570 | 10806 ft | 342 kts | 109° |
| 2026-04-23 13:38 | 11.43834 | 122.83842 | 11372 ft | 350 kts | 115° |
| 2026-04-23 13:39 | 11.42753 | 122.86056 | 12047 ft | 354 kts | 118° |
| 2026-04-23 13:39 | 11.41570 | 122.88276 | 12734 ft | 359 kts | 119° |
| 2026-04-23 13:39 | 11.40344 | 122.90518 | 12923 ft | 363 kts | 120° |
| 2026-04-23 13:39 | 11.39127 | 122.92764 | 12926 ft | 361 kts | 119° |
| 2026-04-23 13:40 | 11.38077 | 122.94741 | 12924 ft | 361 kts | 118° |
| 2026-04-23 13:40 | 11.36865 | 122.96979 | 12923 ft | 361 kts | 123° |
| 2026-04-23 13:40 | 11.35338 | 122.99001 | 12920 ft | 360 kts | 134° |
| 2026-04-23 13:40 | 11.33538 | 123.00772 | 12920 ft | 360 kts | 137° |
| 2026-04-23 13:41 | 11.31717 | 123.02526 | 12926 ft | 360 kts | 137° |
| 2026-04-23 13:41 | 11.29894 | 123.04283 | 12921 ft | 360 kts | 137° |
| 2026-04-23 13:41 | 11.28089 | 123.06023 | 12923 ft | 360 kts | 137° |
| 2026-04-23 13:41 | 11.26263 | 123.07778 | 12919 ft | 360 kts | 137° |
| 2026-04-23 13:42 | 11.24429 | 123.09543 | 12915 ft | 361 kts | 137° |
| 2026-04-23 13:42 | 11.22617 | 123.11287 | 12921 ft | 361 kts | 137° |
| 2026-04-23 13:42 | 11.20787 | 123.13051 | 12921 ft | 361 kts | 137° |
| 2026-04-23 13:42 | 11.18966 | 123.14806 | 12912 ft | 361 kts | 137° |
| 2026-04-23 13:43 | 11.17159 | 123.16550 | 12920 ft | 361 kts | 137° |
| 2026-04-23 13:43 | 11.15565 | 123.18086 | 12915 ft | 361 kts | 137° |
| 2026-04-23 13:43 | 11.13741 | 123.19853 | 12909 ft | 361 kts | 137° |
| 2026-04-23 13:43 | 11.11942 | 123.21588 | 12909 ft | 361 kts | 137° |
| 2026-04-23 13:44 | 11.10118 | 123.23341 | 12918 ft | 361 kts | 137° |
| 2026-04-23 13:44 | 11.08289 | 123.25096 | 12912 ft | 361 kts | 137° |
| 2026-04-23 13:44 | 11.06461 | 123.26848 | 12918 ft | 361 kts | 137° |
| 2026-04-23 13:44 | 11.04632 | 123.28605 | 12918 ft | 361 kts | 137° |
| 2026-04-23 13:45 | 11.03043 | 123.30136 | 12916 ft | 361 kts | 137° |
| 2026-04-23 13:45 | 11.01221 | 123.31892 | 12913 ft | 360 kts | 137° |
| 2026-04-23 13:45 | 10.99399 | 123.33643 | 12916 ft | 360 kts | 137° |
| 2026-04-23 13:45 | 10.97576 | 123.35393 | 12916 ft | 360 kts | 137° |
| 2026-04-23 13:46 | 10.95753 | 123.37141 | 12914 ft | 360 kts | 137° |
| 2026-04-23 13:46 | 10.93951 | 123.38872 | 12913 ft | 360 kts | 137° |
| 2026-04-23 13:46 | 10.92123 | 123.40626 | 12917 ft | 360 kts | 137° |
| 2026-04-23 13:46 | 10.90300 | 123.42376 | 12904 ft | 360 kts | 137° |
| 2026-04-23 13:47 | 10.88497 | 123.44109 | 12916 ft | 360 kts | 137° |
| 2026-04-23 13:47 | 10.86668 | 123.45867 | 12920 ft | 360 kts | 137° |
| 2026-04-23 13:47 | 10.84847 | 123.47616 | 12914 ft | 360 kts | 137° |
| 2026-04-23 13:47 | 10.83261 | 123.49134 | 12916 ft | 360 kts | 137° |
| 2026-04-23 13:48 | 10.81437 | 123.50876 | 12920 ft | 360 kts | 137° |
| 2026-04-23 13:48 | 10.79864 | 123.52383 | 12741 ft | 353 kts | 137° |
| 2026-04-23 13:48 | 10.78101 | 123.54073 | 12498 ft | 344 kts | 137° |
| 2026-04-23 13:48 | 10.76381 | 123.55726 | 12252 ft | 337 kts | 137° |
| 2026-04-23 13:49 | 10.74699 | 123.57340 | 12016 ft | 334 kts | 137° |
| 2026-04-23 13:49 | 10.73016 | 123.58955 | 11767 ft | 332 kts | 137° |
| 2026-04-23 13:49 | 10.71342 | 123.60560 | 11521 ft | 330 kts | 137° |
| 2026-04-23 13:49 | 10.69678 | 123.62155 | 11291 ft | 328 kts | 137° |
| 2026-04-23 13:50 | 10.68022 | 123.63742 | 11053 ft | 326 kts | 136° |
| 2026-04-23 13:50 | 10.66582 | 123.65121 | 10848 ft | 325 kts | 136° |
| 2026-04-23 13:50 | 10.64943 | 123.66691 | 10615 ft | 323 kts | 136° |
| 2026-04-23 13:50 | 10.63309 | 123.68261 | 10384 ft | 322 kts | 136° |
| 2026-04-23 13:51 | 10.61686 | 123.69818 | 10156 ft | 320 kts | 136° |
| 2026-04-23 13:51 | 10.60078 | 123.71361 | 9935 ft | 315 kts | 136° |
| 2026-04-23 13:51 | 10.58515 | 123.72860 | 9814 ft | 303 kts | 136° |
| 2026-04-23 13:51 | 10.57005 | 123.74307 | 9696 ft | 295 kts | 136° |
| 2026-04-23 13:52 | 10.55519 | 123.75727 | 9570 ft | 293 kts | 136° |
| 2026-04-23 13:52 | 10.54230 | 123.76959 | 9462 ft | 292 kts | 136° |
| 2026-04-23 13:52 | 10.52755 | 123.78371 | 9340 ft | 291 kts | 136° |
| 2026-04-23 13:52 | 10.51282 | 123.79781 | 9213 ft | 291 kts | 136° |
| 2026-04-23 13:53 | 10.49807 | 123.81192 | 8899 ft | 290 kts | 136° |
| 2026-04-23 13:53 | 10.48361 | 123.82574 | 8528 ft | 288 kts | 136° |
| 2026-04-23 13:53 | 10.46906 | 123.83964 | 8148 ft | 286 kts | 136° |
| 2026-04-23 13:53 | 10.45641 | 123.85173 | 7815 ft | 285 kts | 136° |
| 2026-04-23 13:54 | 10.44201 | 123.86550 | 7437 ft | 284 kts | 136° |
| 2026-04-23 13:54 | 10.42763 | 123.87927 | 7055 ft | 282 kts | 136° |
| 2026-04-23 13:54 | 10.41568 | 123.89068 | 6753 ft | 281 kts | 136° |
| 2026-04-23 13:54 | 10.40152 | 123.90419 | 6369 ft | 278 kts | 136° |
| 2026-04-23 13:55 | 10.38930 | 123.91589 | 6035 ft | 277 kts | 135° |
| 2026-04-23 13:55 | 10.37533 | 123.92934 | 5665 ft | 275 kts | 136° |
| 2026-04-23 13:55 | 10.36234 | 123.94180 | 5313 ft | 274 kts | 136° |
| 2026-04-23 13:55 | 10.34943 | 123.95421 | 4971 ft | 272 kts | 135° |
| 2026-04-23 13:56 | 10.33564 | 123.96736 | 4600 ft | 271 kts | 136° |
| 2026-04-23 13:56 | 10.32198 | 123.98035 | 4237 ft | 268 kts | 136° |
| 2026-04-23 13:56 | 10.30850 | 123.99317 | 4011 ft | 260 kts | 135° |
| 2026-04-23 13:56 | 10.29566 | 124.00540 | 4012 ft | 248 kts | 134° |
| 2026-04-23 13:57 | 10.28590 | 124.01928 | 4009 ft | 244 kts | 112° |
| 2026-04-23 13:57 | 10.28214 | 124.03593 | 4009 ft | 243 kts | 90° |
| 2026-04-23 13:57 | 10.28501 | 124.05273 | 4011 ft | 243 kts | 68° |
| 2026-04-23 13:57 | 10.29258 | 124.06551 | 4011 ft | 244 kts | 49° |
| 2026-04-23 13:58 | 10.30587 | 124.07619 | 4009 ft | 245 kts | 32° |
| 2026-04-23 13:58 | 10.32084 | 124.08454 | 4012 ft | 246 kts | 28° |
| 2026-04-23 13:58 | 10.33614 | 124.09233 | 4014 ft | 247 kts | 27° |
| 2026-04-23 13:58 | 10.34991 | 124.09824 | 4011 ft | 247 kts | 15° |
| 2026-04-23 13:59 | 10.36712 | 124.09912 | 4010 ft | 250 kts | 351° |
| 2026-04-23 13:59 | 10.38139 | 124.09397 | 4008 ft | 252 kts | 330° |
| 2026-04-23 13:59 | 10.39422 | 124.08212 | 4011 ft | 255 kts | 305° |
| 2026-04-23 13:59 | 10.40101 | 124.06558 | 4009 ft | 256 kts | 278° |
| 2026-04-23 14:00 | 10.40131 | 124.05365 | 4013 ft | 256 kts | 261° |
| 2026-04-23 14:00 | 10.39185 | 124.03190 | 4012 ft | 254 kts | 227° |
| 2026-04-23 14:00 | 10.37799 | 124.02100 | 4012 ft | 253 kts | 208° |
| 2026-04-23 14:00 | 10.36241 | 124.01254 | 4015 ft | 254 kts | 205° |
| 2026-04-23 14:01 | 10.34663 | 124.00455 | 4012 ft | 254 kts | 205° |
| 2026-04-23 14:01 | 10.33077 | 123.99665 | 4007 ft | 254 kts | 205° |
| 2026-04-23 14:01 | 10.31498 | 123.98862 | 4013 ft | 255 kts | 207° |
| 2026-04-23 14:01 | 10.29942 | 123.98013 | 4011 ft | 254 kts | 206° |
| 2026-04-23 14:02 | 10.28376 | 123.97164 | 3821 ft | 254 kts | 207° |
| 2026-04-23 14:02 | 10.27016 | 123.96429 | 3615 ft | 252 kts | 206° |
| 2026-04-23 14:02 | 10.25499 | 123.95604 | 3377 ft | 250 kts | 206° |
| 2026-04-23 14:02 | 10.23980 | 123.94774 | 3138 ft | 246 kts | 207° |
| 2026-04-23 14:03 | 10.22493 | 123.93956 | 2893 ft | 241 kts | 207° |
| 2026-04-23 14:03 | 10.21034 | 123.93156 | 2645 ft | 236 kts | 207° |
| 2026-04-23 14:03 | 10.19611 | 123.92374 | 2448 ft | 228 kts | 206° |
| 2026-04-23 14:03 | 10.18254 | 123.91625 | 2401 ft | 215 kts | 207° |
| 2026-04-23 14:04 | 10.17123 | 123.91000 | 2406 ft | 210 kts | 206° |
| 2026-04-23 14:04 | 10.15852 | 123.90295 | 2408 ft | 207 kts | 207° |
| 2026-04-23 14:04 | 10.14753 | 123.89682 | 2418 ft | 208 kts | 207° |
| 2026-04-23 14:04 | 10.13486 | 123.88976 | 2411 ft | 207 kts | 207° |
| 2026-04-23 14:05 | 10.12303 | 123.88150 | 2396 ft | 209 kts | 230° |
| 2026-04-23 14:05 | 10.11760 | 123.87003 | 2409 ft | 209 kts | 263° |
| 2026-04-23 14:05 | 10.11960 | 123.85573 | 2409 ft | 206 kts | 301° |
| 2026-04-23 14:05 | 10.12779 | 123.84660 | 2406 ft | 200 kts | 334° |
| 2026-04-23 14:06 | 10.14087 | 123.84278 | 2422 ft | 196 kts | 356° |
| 2026-04-23 14:06 | 10.15449 | 123.84173 | 2417 ft | 196 kts | 0° |
| 2026-04-23 14:06 | 10.16614 | 123.84241 | 2434 ft | 195 kts | 10° |
| 2026-04-23 14:06 | 10.17933 | 123.84525 | 2426 ft | 189 kts | 30° |
| 2026-04-23 14:07 | 10.18808 | 123.85152 | 2445 ft | 166 kts | 43° |
| 2026-04-23 14:07 | 10.20139 | 123.86783 | 2422 ft | 143 kts | 57° |
| 2026-04-23 14:07 | 10.20680 | 123.87612 | 2438 ft | 139 kts | 58° |
| 2026-04-23 14:08 | 10.21199 | 123.88277 | 2434 ft | 138 kts | 50° |
| 2026-04-23 14:08 | 10.21863 | 123.88993 | 2314 ft | 139 kts | 47° |
| 2026-04-23 14:08 | 10.22447 | 123.89605 | 2156 ft | 138 kts | 48° |
| 2026-04-23 14:08 | 10.23116 | 123.90304 | 1946 ft | 138 kts | 47° |
| 2026-04-23 14:09 | 10.23785 | 123.91000 | 1738 ft | 137 kts | 48° |
| 2026-04-23 14:09 | 10.24351 | 123.91614 | 1589 ft | 137 kts | 49° |
| 2026-04-23 14:09 | 10.25009 | 123.92318 | 1405 ft | 137 kts | 48° |
| 2026-04-23 14:09 | 10.25603 | 123.92906 | 1238 ft | 137 kts | 43° |
| 2026-04-23 14:10 | 10.26328 | 123.93525 | 1029 ft | 138 kts | 42° |
| 2026-04-23 14:10 | 10.27027 | 123.94205 | 814 ft | 137 kts | 46° |
| 2026-04-23 14:10 | 10.27604 | 123.94791 | 609 ft | 135 kts | 45° |
| 2026-04-23 14:10 | 10.28276 | 123.95458 | 434 ft | 135 kts | 43° |
| 2026-04-23 14:11 | 10.28912 | 123.96095 | 296 ft | 136 kts | 43° |
| 2026-04-23 14:11 | 10.29527 | 123.96713 | 120 ft | 135 kts | 44° |
| 2026-04-23 14:11 | 10.30166 | 123.97353 | 37 ft | 114 kts | 45° |
| 2026-04-23 14:11 | 10.30554 | 123.97743 | 36 ft | 68 kts | 44° |
| 2026-04-23 14:12 | 10.30835 | 123.98023 | 35 ft | 51 kts | 44° |
| 2026-04-23 14:12 | 10.31037 | 123.98225 | 37 ft | 43 kts | 43° |
| 2026-04-23 14:12 | 10.31239 | 123.98336 | 39 ft | 27 kts | 17° |
| 2026-04-23 14:12 | 10.31391 | 123.98320 | 39 ft | 22 kts | 316° |
| 2026-04-23 14:13 | 10.31476 | 123.98237 | 39 ft | 19 kts | 316° |
| 2026-04-23 14:13 | 10.31563 | 123.98140 | 39 ft | 16 kts | 294° |
| 2026-04-23 14:13 | 10.31534 | 123.98074 | 39 ft | 10 kts | 228° |
| 2026-04-23 14:13 | 10.31515 | 123.98027 | 39 ft | 8 kts | 291° |
| 2026-04-23 14:14 | 10.31546 | 123.97989 | 39 ft | 4 kts | 314° |
| 2026-04-23 14:14 | 10.31554 | 123.97980 | 39 ft | 0 kts | 314° |